createdAt,value
2022-09-13T00:00:41.540Z,100622.00
2022-09-13T00:03:09.909Z,100620.00
2022-09-13T00:05:37.787Z,100610.78
2022-09-13T00:08:05.580Z,100604.41
2022-09-13T00:10:34.894Z,100598.81
2022-09-13T00:13:01.774Z,100593.97
2022-09-13T00:15:28.467Z,100595.22
2022-09-13T00:17:55.030Z,100603.16
2022-09-13T00:20:21.580Z,100597.56
2022-09-13T00:22:47.985Z,100597.09
2022-09-13T00:25:14.444Z,100592.75
2022-09-13T00:27:40.975Z,100590.41
2022-09-13T00:30:08.737Z,100588.69
2022-09-13T00:32:35.854Z,100580.28
2022-09-13T00:35:04.231Z,100575.47
2022-09-13T00:37:32.424Z,100577.03
2022-09-13T00:39:59.384Z,100577.03
2022-09-13T00:42:27.935Z,100572.22
2022-09-13T00:44:59.968Z,100573.13
2022-09-13T00:47:39.137Z,100572.78
2022-09-13T00:50:20.725Z,100566.38
2022-09-13T00:52:54.896Z,100565.16
2022-09-13T00:55:26.977Z,100564.38
2022-09-13T00:57:57.624Z,100569.66
2022-09-13T01:00:24.308Z,100572.44
2022-09-13T01:02:55.722Z,100575.75
2022-09-13T01:05:27.680Z,100574.50
2022-09-13T01:07:56.410Z,100578.41
2022-09-13T01:10:23.647Z,100566.38
2022-09-13T01:12:50.088Z,100570.78
2022-09-13T01:15:16.763Z,100560.47
2022-09-13T01:17:44.110Z,100561.22
2022-09-13T01:20:11.529Z,100560.59
2022-09-13T01:22:59.955Z,100554.34
2022-09-13T01:26:04.189Z,100553.53
2022-09-13T01:28:42.847Z,100552.91
2022-09-13T01:31:19.518Z,100554.28
2022-09-13T01:34:06.849Z,100559.13
2022-09-13T01:36:42.363Z,100550.06
2022-09-13T01:39:36.927Z,100546.91
2022-09-13T01:42:22.347Z,100546.13
2022-09-13T01:44:57.734Z,100549.06
2022-09-13T01:47:24.144Z,100545.47
2022-09-13T01:50:38.110Z,100542.81
2022-09-13T01:53:23.448Z,100546.19
2022-09-13T01:56:00.981Z,100540.28
2022-09-13T01:58:38.296Z,100549.91
2022-09-13T02:01:08.806Z,100546.47
2022-09-13T02:03:55.571Z,100537.75
2022-09-13T02:06:33.868Z,100538.06
2022-09-13T02:09:10.170Z,100550.16
2022-09-13T02:11:39.929Z,100550.16
2022-09-13T02:14:15.692Z,100552.97
2022-09-13T02:17:06.888Z,100560.91
2022-09-13T02:20:00.219Z,100554.56
2022-09-13T02:22:34.669Z,100550.16
2022-09-13T02:25:09.169Z,100552.50
2022-09-13T02:27:38.715Z,100557.81
2022-09-13T02:30:08.836Z,100551.59
2022-09-13T02:32:44.233Z,100546.47
2022-09-13T02:35:14.524Z,100553.63
2022-09-13T02:37:45.087Z,100548.34
2022-09-13T02:40:17.848Z,100540.84
2022-09-13T02:42:55.531Z,100538.50
2022-09-13T02:45:29.545Z,100533.69
2022-09-13T02:48:10.274Z,100537.75
2022-09-13T02:50:44.063Z,100529.34
2022-09-13T02:53:30.335Z,100527.75
2022-09-13T02:56:23.926Z,100530.44
2022-09-13T02:59:07.496Z,100525.94
2022-09-13T03:01:36.490Z,100530.63
2022-09-13T03:04:03.475Z,100541.25
2022-09-13T03:06:30.082Z,100537.97
2022-09-13T03:09:00.545Z,100537.97
2022-09-13T03:11:58.101Z,100536.75
2022-09-13T03:14:46.417Z,100544.25
2022-09-13T03:17:24.370Z,100541.91
2022-09-13T03:20:07.923Z,100553.44
2022-09-13T03:23:12.620Z,100547.84
2022-09-13T03:26:06.775Z,100552.19
2022-09-13T03:28:53.586Z,100553.78
2022-09-13T03:31:43.353Z,100555.78
2022-09-13T03:34:24.029Z,100566.53
2022-09-13T03:37:00.414Z,100549.72
2022-09-13T03:40:00.225Z,100547.25
2022-09-13T03:42:27.129Z,100546.47
2022-09-13T03:44:57.127Z,100538.19
2022-09-13T03:47:26.189Z,100538.50
2022-09-13T03:49:53.532Z,100546.91
2022-09-13T03:52:20.379Z,100546.59
2022-09-13T03:54:46.816Z,100540.22
2022-09-13T03:57:18.294Z,100545.38
2022-09-13T03:59:48.460Z,100541.75
2022-09-13T04:02:16.283Z,100537.72
2022-09-13T04:04:43.928Z,100536.50
2022-09-13T04:07:13.948Z,100531.34
2022-09-13T04:09:40.387Z,100533.06
2022-09-13T04:12:07.034Z,100521.34
2022-09-13T04:14:33.520Z,100520.59
2022-09-13T04:16:59.922Z,100527.44
2022-09-13T04:19:27.110Z,100531.81
2022-09-13T04:21:55.813Z,100526.19
2022-09-13T04:24:27.314Z,100518.25
2022-09-13T04:26:54.817Z,100527.13
2022-09-13T04:29:23.003Z,100524.31
2022-09-13T04:31:51.986Z,100529.13
2022-09-13T04:34:18.764Z,100523.97
2022-09-13T04:36:46.135Z,100525.56
2022-09-13T04:39:14.080Z,100532.72
2022-09-13T04:41:41.731Z,100537.53
2022-09-13T04:44:08.252Z,100541.13
2022-09-13T04:46:34.739Z,100544.72
2022-09-13T04:49:01.179Z,100544.38
2022-09-13T04:51:27.694Z,100550.31
2022-09-13T04:53:55.971Z,100539.88
2022-09-13T04:56:24.208Z,100535.53
2022-09-13T04:58:51.565Z,100534.28
2022-09-13T05:01:18.089Z,100536.63
2022-09-13T05:03:44.760Z,100536.16
2022-09-13T05:06:14.431Z,100546.13
2022-09-13T05:08:41.218Z,100548.16
2022-09-13T05:11:08.471Z,100539.75
2022-09-13T05:13:34.989Z,100542.09
2022-09-13T05:16:06.877Z,100534.16
2022-09-13T05:18:35.750Z,100534.66
2022-09-13T05:21:04.773Z,100534.72
2022-09-13T05:23:32.117Z,100538.94
2022-09-13T05:26:04.384Z,100540.25
2022-09-13T05:28:33.907Z,100538.41
2022-09-13T05:31:01.552Z,100539.38
2022-09-13T05:33:30.933Z,100548.88
2022-09-13T05:35:57.434Z,100542.69
2022-09-13T05:38:24.362Z,100552.22
2022-09-13T05:40:57.989Z,100552.88
2022-09-13T05:43:31.527Z,100549.28
2022-09-13T05:46:18.289Z,100549.72
2022-09-13T05:48:44.935Z,100554.78
2022-09-13T05:51:12.542Z,100553.53
2022-09-13T05:53:40.298Z,100559.47
2022-09-13T05:56:08.938Z,100547.97
2022-09-13T05:58:41.526Z,100558.91
2022-09-13T06:01:08.381Z,100563.25
2022-09-13T06:03:36.183Z,100570.63
2022-09-13T06:06:04.188Z,100568.28
2022-09-13T06:08:32.678Z,100569.38
2022-09-13T06:11:04.383Z,100563.13
2022-09-13T06:13:31.386Z,100564.25
2022-09-13T06:16:00.122Z,100563.81
2022-09-13T06:18:27.133Z,100564.09
2022-09-13T06:21:01.744Z,100572.06
2022-09-13T06:23:29.591Z,100572.41
2022-09-13T06:26:05.681Z,100573.94
2022-09-13T06:28:37.173Z,100574.28
2022-09-13T06:31:06.102Z,100576.47
2022-09-13T06:33:36.678Z,100564.91
2022-09-13T06:36:05.382Z,100579.72
2022-09-13T06:38:32.188Z,100566.78
2022-09-13T06:41:13.779Z,100565.19
2022-09-13T06:43:41.817Z,100572.41
2022-09-13T06:46:19.476Z,100570.53
2022-09-13T06:48:48.736Z,100577.09
2022-09-13T06:51:18.081Z,100574.31
2022-09-13T06:53:46.663Z,100583.38
2022-09-13T06:56:16.307Z,100581.66
2022-09-13T06:58:44.515Z,100574.97
2022-09-13T07:01:17.107Z,100576.69
2022-09-13T07:03:46.708Z,100568.47
2022-09-13T07:06:20.291Z,100573.03
2022-09-13T07:08:49.677Z,100573.47
2022-09-13T07:11:18.416Z,100582.22
2022-09-13T07:13:52.388Z,100572.72
2022-09-13T07:16:21.909Z,100577.84
2022-09-13T07:18:53.296Z,100585.06
2022-09-13T07:21:20.603Z,100582.06
2022-09-13T07:23:47.125Z,100581.28
2022-09-13T07:26:13.711Z,100577.38
2022-09-13T07:28:45.701Z,100575.94
2022-09-13T07:31:15.316Z,100585.06
2022-09-13T07:33:43.046Z,100586.63
2022-09-13T07:36:11.706Z,100578.66
2022-09-13T07:38:45.217Z,100578.94
2022-09-13T07:41:14.248Z,100584.09
2022-09-13T07:43:40.935Z,100582.69
2022-09-13T07:46:10.118Z,100586.88
2022-09-13T07:48:39.478Z,100583.16
2022-09-13T07:51:07.380Z,100585.16
2022-09-13T07:53:35.192Z,100592.78
2022-09-13T07:56:15.014Z,100593.41
2022-09-13T07:58:43.501Z,100588.84
2022-09-13T08:01:19.624Z,100596.50
2022-09-13T08:03:55.175Z,100599.88
2022-09-13T08:06:22.856Z,100598.97
2022-09-13T08:08:49.748Z,100597.72
2022-09-13T08:11:19.327Z,100599.75
2022-09-13T08:13:47.441Z,100598.34
2022-09-13T08:16:14.952Z,100600.47
2022-09-13T08:18:45.973Z,100597.34
2022-09-13T08:21:13.387Z,100601.53
2022-09-13T08:23:40.162Z,100602.81
2022-09-13T08:26:08.118Z,100604.16
2022-09-13T08:28:35.662Z,100600.19
2022-09-13T08:31:07.758Z,100596.56
2022-09-13T08:33:35.126Z,100605.13
2022-09-13T08:36:02.352Z,100604.56
2022-09-13T08:38:29.355Z,100605.78
2022-09-13T08:41:26.445Z,100610.09
2022-09-13T08:44:11.467Z,100598.28
2022-09-13T08:46:46.544Z,100601.91
2022-09-13T08:49:34.667Z,100602.00
2022-09-13T08:52:40.636Z,100601.28
2022-09-13T08:55:24.039Z,100594.31
2022-09-13T08:58:01.979Z,100592.94
2022-09-13T09:00:39.607Z,100597.78
2022-09-13T09:03:12.760Z,100598.19
2022-09-13T09:05:49.818Z,100597.03
2022-09-13T09:08:40.328Z,100598.13
2022-09-13T09:11:20.744Z,100590.06
2022-09-13T09:14:04.982Z,100595.59
2022-09-13T09:16:50.580Z,100595.50
2022-09-13T09:19:22.810Z,100602.09
2022-09-13T09:21:51.668Z,100597.06
2022-09-13T09:24:21.851Z,100599.78
2022-09-13T09:26:48.354Z,100595.47
2022-09-13T09:29:25.160Z,100598.63
2022-09-13T09:31:59.098Z,100594.56
2022-09-13T09:34:42.729Z,100596.59
2022-09-13T09:37:09.244Z,100597.41
2022-09-13T09:39:39.226Z,100599.50
2022-09-13T09:42:13.364Z,100595.69
2022-09-13T09:44:41.093Z,100594.00
2022-09-13T09:47:14.408Z,100589.41
2022-09-13T09:50:09.372Z,100581.75
2022-09-13T09:52:44.834Z,100580.84
2022-09-13T09:55:21.466Z,100592.97
2022-09-13T09:57:55.848Z,100592.16
2022-09-13T10:00:26.021Z,100590.03
2022-09-13T10:02:57.510Z,100592.88
2022-09-13T10:05:26.204Z,100588.59
2022-09-13T10:07:55.236Z,100594.13
2022-09-13T10:10:36.675Z,100599.34
2022-09-13T10:13:08.180Z,100593.84
2022-09-13T10:15:35.709Z,100590.53
2022-09-13T10:18:42.805Z,100588.75
2022-09-13T10:21:18.335Z,100582.34
2022-09-13T10:23:50.820Z,100597.25
2022-09-13T10:26:21.140Z,100589.97
2022-09-13T10:29:00.107Z,100593.41
2022-09-13T10:31:34.744Z,100590.91
2022-09-13T10:34:13.747Z,100584.91
2022-09-13T10:36:57.756Z,100580.81
2022-09-13T10:39:25.733Z,100588.84
2022-09-13T10:42:08.221Z,100591.97
2022-09-13T10:44:47.453Z,100587.13
2022-09-13T10:47:23.400Z,100585.59
2022-09-13T10:49:54.849Z,100580.41
2022-09-13T10:52:47.440Z,100574.22
2022-09-13T10:55:19.939Z,100572.16
2022-09-13T10:57:51.902Z,100567.47
2022-09-13T11:00:25.628Z,100564.13
2022-09-13T11:03:13.544Z,100562.81
2022-09-13T11:05:45.993Z,100562.56
2022-09-13T11:08:28.622Z,100573.16
2022-09-13T11:11:32.887Z,100567.97
2022-09-13T11:14:12.420Z,100562.31
2022-09-13T11:16:45.981Z,100562.03
2022-09-13T11:19:27.751Z,100560.72
2022-09-13T11:22:13.184Z,100556.63
2022-09-13T11:25:17.315Z,100555.56
2022-09-13T11:28:05.433Z,100547.16
2022-09-13T11:30:43.421Z,100550.59
2022-09-13T11:33:19.763Z,100548.16
2022-09-13T11:36:09.734Z,100554.84
2022-09-13T11:38:56.350Z,100556.03
2022-09-13T11:41:42.360Z,100547.56
2022-09-13T11:44:41.196Z,100544.00
2022-09-13T11:47:47.075Z,100542.38
2022-09-13T11:51:01.243Z,100541.63
2022-09-13T11:53:43.502Z,100535.94
2022-09-13T11:56:16.551Z,100531.53
2022-09-13T11:58:50.131Z,100533.03
2022-09-13T12:01:43.145Z,100530.13
2022-09-13T12:04:25.318Z,100518.13
2022-09-13T12:07:00.182Z,100516.84
2022-09-13T12:09:33.190Z,100513.50
2022-09-13T12:12:05.701Z,100520.41
2022-09-13T12:14:43.718Z,100520.38
2022-09-13T12:17:25.166Z,100509.44
2022-09-13T12:19:54.936Z,100515.63
2022-09-13T12:22:28.895Z,100524.09
2022-09-13T12:25:00.328Z,100515.41
2022-09-13T12:27:30.088Z,100510.09
2022-09-13T12:30:05.953Z,100510.81
2022-09-13T12:32:32.663Z,100511.06
2022-09-13T12:35:16.054Z,100505.81
2022-09-13T12:38:07.219Z,100506.13
2022-09-13T12:40:50.849Z,100506.13
2022-09-13T12:43:26.618Z,100505.81
2022-09-13T12:46:07.798Z,100504.88
2022-09-13T12:48:46.346Z,100508.31
2022-09-13T12:51:43.497Z,100506.69
2022-09-13T12:54:27.425Z,100499.34
2022-09-13T12:57:17.954Z,100497.22
2022-09-13T13:00:04.462Z,100494.75
2022-09-13T13:02:54.201Z,100495.13
2022-09-13T13:05:30.822Z,100493.97
2022-09-13T13:08:02.237Z,100494.44
2022-09-13T13:10:33.095Z,100489.78
2022-09-13T13:13:15.747Z,100487.16
2022-09-13T13:15:46.605Z,100492.25
2022-09-13T13:18:28.152Z,100488.41
2022-09-13T13:20:54.604Z,100495.81
2022-09-13T13:23:21.033Z,100491.88
2022-09-13T13:26:09.345Z,100492.59
2022-09-13T13:28:51.978Z,100486.63
2022-09-13T13:31:24.826Z,100486.31
2022-09-13T13:33:58.881Z,100485.47
2022-09-13T13:36:33.745Z,100475.78
2022-09-13T13:39:01.972Z,100477.91
2022-09-13T13:41:38.265Z,100477.63
2022-09-13T13:44:20.384Z,100477.22
2022-09-13T13:46:51.556Z,100466.06
2022-09-13T13:49:30.221Z,100475.72
2022-09-13T13:52:08.478Z,100466.97
2022-09-13T13:54:50.447Z,100468.53
2022-09-13T13:57:41.404Z,100464.06
2022-09-13T14:00:22.426Z,100467.41
2022-09-13T14:02:54.457Z,100471.06
2022-09-13T14:05:30.310Z,100465.13
2022-09-13T14:08:02.679Z,100455.91
2022-09-13T14:10:47.856Z,100454.69
2022-09-13T14:13:32.823Z,100461.50
2022-09-13T14:16:13.915Z,100464.78
2022-09-13T14:18:55.415Z,100453.13
2022-09-13T14:21:26.712Z,100450.00
2022-09-13T14:24:09.515Z,100459.72
2022-09-13T14:26:36.745Z,100454.91
2022-09-13T14:29:07.454Z,100452.97
2022-09-13T14:31:33.970Z,100439.84
2022-09-13T14:34:00.528Z,100448.84
2022-09-13T14:36:27.635Z,100451.66
2022-09-13T14:38:59.556Z,100452.94
2022-09-13T14:41:32.808Z,100443.22
2022-09-13T14:44:28.376Z,100438.25
2022-09-13T14:47:03.351Z,100448.84
2022-09-13T14:49:36.151Z,100440.44
2022-09-13T14:52:09.008Z,100449.44
2022-09-13T14:54:35.420Z,100444.09
2022-09-13T14:57:05.153Z,100442.19
2022-09-13T14:59:36.212Z,100446.41
2022-09-13T15:02:13.528Z,100445.78
2022-09-13T15:04:45.211Z,100446.50
2022-09-13T15:07:39.108Z,100445.88
2022-09-13T15:10:29.903Z,100445.72
2022-09-13T15:12:56.373Z,100444.66
2022-09-13T15:15:26.103Z,100443.38
2022-09-13T15:18:16.665Z,100437.19
2022-09-13T15:21:16.825Z,100444.41
2022-09-13T15:23:50.454Z,100435.88
2022-09-13T15:26:27.941Z,100424.19
2022-09-13T15:29:04.148Z,100430.38
2022-09-13T15:31:32.945Z,100422.81
2022-09-13T15:34:17.777Z,100425.44
2022-09-13T15:37:02.807Z,100427.59
2022-09-13T15:39:29.355Z,100426.13
2022-09-13T15:42:00.635Z,100431.69
2022-09-13T15:44:29.786Z,100425.50
2022-09-13T15:47:01.934Z,100432.72
2022-09-13T15:49:29.306Z,100428.88
2022-09-13T15:52:02.061Z,100418.78
2022-09-13T15:54:41.304Z,100419.38
2022-09-13T15:57:13.610Z,100433.06
2022-09-13T15:59:40.213Z,100424.06
2022-09-13T16:02:21.478Z,100432.34
2022-09-13T16:04:48.514Z,100434.19
2022-09-13T16:07:15.976Z,100438.84
2022-09-13T16:09:42.708Z,100432.16
2022-09-13T16:12:09.582Z,100429.84
2022-09-13T16:14:36.041Z,100427.25
2022-09-13T16:17:06.837Z,100421.59
2022-09-13T16:19:33.757Z,100424.97
2022-09-13T16:22:00.190Z,100424.44
2022-09-13T16:24:27.178Z,100424.69
2022-09-13T16:26:54.103Z,100423.66
2022-09-13T16:29:20.559Z,100425.72
2022-09-13T16:31:47.152Z,100426.47
2022-09-13T16:34:13.596Z,100429.53
2022-09-13T16:36:40.100Z,100431.56
2022-09-13T16:39:06.537Z,100426.41
2022-09-13T16:41:33.019Z,100423.34
2022-09-13T16:43:59.565Z,100427.47
2022-09-13T16:46:26.207Z,100428.19
2022-09-13T16:48:56.287Z,100427.41
2022-09-13T16:51:23.701Z,100433.81
2022-09-13T16:53:51.948Z,100439.22
2022-09-13T16:56:21.501Z,100438.19
2022-09-13T16:58:48.744Z,100440.75
2022-09-13T17:01:18.057Z,100433.22
2022-09-13T17:03:44.696Z,100433.22
2022-09-13T17:06:14.254Z,100435.78
2022-09-13T17:08:42.889Z,100437.03
2022-09-13T17:11:12.208Z,100447.34
2022-09-13T17:13:40.014Z,100435.97
2022-09-13T17:16:18.533Z,100434.13
2022-09-13T17:18:45.197Z,100428.69
2022-09-13T17:21:11.661Z,100431.78
2022-09-13T17:23:38.220Z,100428.66
2022-09-13T17:26:04.661Z,100438.94
2022-09-13T17:28:31.215Z,100441.72
2022-09-13T17:31:01.805Z,100435.47
2022-09-13T17:33:29.071Z,100453.75
2022-09-13T17:36:00.550Z,100449.06
2022-09-13T17:38:27.367Z,100438.25
2022-09-13T17:41:01.902Z,100441.34
2022-09-13T17:43:28.714Z,100438.50
2022-09-13T17:45:55.486Z,100432.06
2022-09-13T17:48:21.998Z,100432.34
2022-09-13T17:50:48.438Z,100426.13
2022-09-13T17:53:14.914Z,100432.84
2022-09-13T17:55:49.213Z,100437.69
2022-09-13T17:58:16.424Z,100443.53
2022-09-13T18:00:43.765Z,100443.28
2022-09-13T18:03:10.609Z,100435.00
2022-09-13T18:05:37.311Z,100435.25
2022-09-13T18:08:03.838Z,100436.78
2022-09-13T18:10:57.954Z,100430.28
2022-09-13T18:13:17.475Z,100427.72
2022-09-13T18:15:43.966Z,100432.09
2022-09-13T18:18:10.492Z,100428.72
2022-09-13T18:20:40.503Z,100433.59
2022-09-13T18:23:08.051Z,100432.25
2022-09-13T18:25:34.489Z,100439.41
2022-09-13T18:28:01.045Z,100437.31
2022-09-13T18:30:27.451Z,100432.91
2022-09-13T18:32:54.195Z,100438.56
2022-09-13T18:35:20.660Z,100432.13
2022-09-13T18:37:47.091Z,100430.28
2022-09-13T18:40:15.252Z,100425.59
2022-09-13T18:42:45.200Z,100425.25
2022-09-13T18:45:11.923Z,100434.00
2022-09-13T18:47:38.723Z,100434.69
2022-09-13T18:50:08.164Z,100440.59
2022-09-13T18:52:39.026Z,100440.25
2022-09-13T18:55:05.852Z,100445.06
2022-09-13T18:57:32.327Z,100447.78
2022-09-13T18:59:59.450Z,100453.16
2022-09-13T19:02:25.956Z,100457.72
2022-09-13T19:04:52.511Z,100459.25
2022-09-13T19:07:21.206Z,100450.75
2022-09-13T19:09:47.637Z,100451.75
2022-09-13T19:12:14.044Z,100451.91
2022-09-13T19:14:40.508Z,100446.72
2022-09-13T19:17:06.983Z,100458.81
2022-09-13T19:19:35.448Z,100449.75
2022-09-13T19:22:01.880Z,100448.91
2022-09-13T19:24:28.389Z,100454.19
2022-09-13T19:26:54.844Z,100456.94
2022-09-13T19:29:23.026Z,100446.34
2022-09-13T19:31:52.084Z,100450.66
2022-09-13T19:34:20.185Z,100448.34
2022-09-13T19:36:48.885Z,100458.47
2022-09-13T19:39:15.344Z,100468.94
2022-09-13T19:41:41.872Z,100459.28
2022-09-13T19:44:10.676Z,100453.38
2022-09-13T19:46:40.175Z,100450.38
2022-09-13T19:49:11.745Z,100456.03
2022-09-13T19:51:39.464Z,100463.72
2022-09-13T19:54:07.615Z,100468.47
2022-09-13T19:56:37.874Z,100462.75
2022-09-13T19:59:04.755Z,100463.72
2022-09-13T20:01:34.230Z,100468.69
2022-09-13T20:04:03.568Z,100457.31
2022-09-13T20:06:35.842Z,100456.44
2022-09-13T20:09:04.097Z,100451.78
2022-09-13T20:11:31.444Z,100457.59
2022-09-13T20:13:59.423Z,100446.72
2022-09-13T20:16:32.483Z,100456.75
2022-09-13T20:18:59.005Z,100463.16
2022-09-13T20:21:30.892Z,100460.81
2022-09-13T20:24:00.624Z,100457.13
2022-09-13T20:26:27.869Z,100453.44
2022-09-13T20:29:00.402Z,100453.94
2022-09-13T20:31:28.213Z,100444.59
2022-09-13T20:34:00.000Z,100437.59
2022-09-13T20:36:30.098Z,100443.69
2022-09-13T20:39:02.401Z,100452.66
2022-09-13T20:41:30.374Z,100453.09
2022-09-13T20:43:59.024Z,100442.31
2022-09-13T20:46:25.911Z,100444.06
2022-09-13T20:48:52.428Z,100436.78
2022-09-13T20:51:25.219Z,100432.00
2022-09-13T20:53:56.329Z,100436.06
2022-09-13T20:56:23.574Z,100443.44
2022-09-13T20:58:57.349Z,100447.53
2022-09-13T21:01:24.654Z,100452.28
2022-09-13T21:03:53.392Z,100451.53
2022-09-13T21:06:21.701Z,100456.97
2022-09-13T21:08:52.403Z,100452.38
2022-09-13T21:11:24.669Z,100453.34
2022-09-13T21:13:53.399Z,100459.78
2022-09-13T21:16:21.219Z,100455.59
2022-09-13T21:18:47.929Z,100459.19
2022-09-13T21:21:20.078Z,100447.34
2022-09-13T21:23:47.767Z,100458.41
2022-09-13T21:26:20.157Z,100462.00
2022-09-13T21:28:47.304Z,100463.44
2022-09-13T21:31:21.478Z,100455.47
2022-09-13T21:33:48.749Z,100451.38
2022-09-13T21:36:15.295Z,100447.50
2022-09-13T21:38:41.710Z,100439.16
2022-09-13T21:41:12.697Z,100450.28
2022-09-13T21:43:39.681Z,100446.69
2022-09-13T21:46:15.002Z,100458.44
2022-09-13T21:48:45.089Z,100460.94
2022-09-13T21:51:20.829Z,100464.25
2022-09-13T21:53:48.383Z,100469.88
2022-09-13T21:56:18.215Z,100460.19
2022-09-13T21:58:52.991Z,100465.84
2022-09-13T22:01:22.657Z,100459.56
2022-09-13T22:03:51.666Z,100464.63
2022-09-13T22:06:19.819Z,100459.66
2022-09-13T22:08:48.790Z,100449.50
2022-09-13T22:11:17.926Z,100457.81
2022-09-13T22:13:45.868Z,100460.63
2022-09-13T22:16:21.650Z,100455.25
2022-09-13T22:18:56.391Z,100450.28
2022-09-13T22:21:25.906Z,100451.53
2022-09-13T22:23:52.470Z,100450.91
2022-09-13T22:26:24.290Z,100453.13
2022-09-13T22:28:52.442Z,100449.72
2022-09-13T22:31:21.616Z,100450.41
2022-09-13T22:33:48.857Z,100441.66
2022-09-13T22:36:16.355Z,100440.72
2022-09-13T22:38:44.835Z,100443.75
2022-09-13T22:41:14.494Z,100440.44
2022-09-13T22:43:41.618Z,100442.66
2022-09-13T22:46:12.466Z,100447.97
2022-09-13T22:48:40.108Z,100441.28
2022-09-13T22:51:08.175Z,100450.69
2022-09-13T22:53:36.932Z,100451.63
2022-09-13T22:56:18.658Z,100445.69
2022-09-13T22:58:45.892Z,100451.78
2022-09-13T23:01:18.795Z,100448.38
2022-09-13T23:03:46.725Z,100449.78
2022-09-13T23:06:15.615Z,100446.69
2022-09-13T23:08:42.331Z,100446.25
2022-09-13T23:11:19.909Z,100443.63
2022-09-13T23:13:48.728Z,100429.25
2022-09-13T23:16:18.723Z,100419.72
2022-09-13T23:18:45.842Z,100417.56
2022-09-13T23:21:12.511Z,100417.22
2022-09-13T23:23:39.511Z,100421.75
2022-09-13T23:26:12.418Z,100416.59
2022-09-13T23:28:39.393Z,100418.66
2022-09-13T23:31:14.706Z,100416.19
2022-09-13T23:33:43.331Z,100426.97
2022-09-13T23:36:12.112Z,100421.81
2022-09-13T23:38:40.435Z,100414.78
2022-09-13T23:41:07.586Z,100426.03
2022-09-13T23:43:34.250Z,100425.16
2022-09-13T23:46:00.697Z,100425.16
2022-09-13T23:48:27.383Z,100415.78
2022-09-13T23:51:06.036Z,100418.47
2022-09-13T23:53:33.639Z,100416.28
2022-09-13T23:56:00.165Z,100410.19
2022-09-13T23:58:26.741Z,100413.00
